createdAt,value
2022-08-07T00:00:18.525Z,16.89
2022-08-07T00:02:45.833Z,16.86
2022-08-07T00:05:13.077Z,16.78
2022-08-07T00:07:41.622Z,16.55
2022-08-07T00:10:25.960Z,16.70
2022-08-07T00:13:00.762Z,16.78
2022-08-07T00:15:35.933Z,16.68
2022-08-07T00:18:05.913Z,16.76
2022-08-07T00:20:34.547Z,16.65
2022-08-07T00:23:07.986Z,16.51
2022-08-07T00:25:37.472Z,16.47
2022-08-07T00:28:10.666Z,16.58
2022-08-07T00:30:38.031Z,16.52
2022-08-07T00:33:07.760Z,16.61
2022-08-07T00:35:35.354Z,16.53
2022-08-07T00:38:04.739Z,16.51
2022-08-07T00:40:38.987Z,16.30
2022-08-07T00:44:01.112Z,16.15
2022-08-07T00:46:01.916Z,16.14
2022-08-07T00:48:32.150Z,16.21
2022-08-07T00:51:01.362Z,16.14
2022-08-07T00:53:39.403Z,16.24
2022-08-07T00:56:15.851Z,16.31
2022-08-07T00:58:47.146Z,16.25
2022-08-07T01:01:16.083Z,16.02
2022-08-07T01:03:57.061Z,16.17
2022-08-07T01:06:29.379Z,16.20
2022-08-07T01:09:01.018Z,16.11
2022-08-07T01:12:09.224Z,16.25
2022-08-07T01:14:28.117Z,16.13
2022-08-07T01:16:57.259Z,16.08
2022-08-07T01:19:26.667Z,16.11
2022-08-07T01:21:55.445Z,16.05
2022-08-07T01:24:23.020Z,16.14
2022-08-07T01:26:54.684Z,15.95
2022-08-07T01:29:27.831Z,16.02
2022-08-07T01:31:59.249Z,16.01
2022-08-07T01:34:31.099Z,16.09
2022-08-07T01:36:58.715Z,15.87
2022-08-07T01:39:40.418Z,15.90
2022-08-07T01:42:39.982Z,16.04
2022-08-07T01:44:56.273Z,16.02
2022-08-07T01:48:19.746Z,15.95
2022-08-07T01:50:12.493Z,15.93
2022-08-07T01:52:40.868Z,15.99
2022-08-07T01:55:34.178Z,15.91
2022-08-07T01:58:27.448Z,15.93
2022-08-07T02:01:09.452Z,15.93
2022-08-07T02:03:50.149Z,15.95
2022-08-07T02:06:31.851Z,15.92
2022-08-07T02:09:03.825Z,15.94
2022-08-07T02:12:04.110Z,15.89
2022-08-07T02:14:36.245Z,15.83
2022-08-07T02:17:08.887Z,15.74
2022-08-07T02:20:05.058Z,15.74
2022-08-07T02:22:27.188Z,15.74
2022-08-07T02:24:57.475Z,15.64
2022-08-07T02:27:34.096Z,15.66
2022-08-07T02:30:07.458Z,15.63
2022-08-07T02:32:39.582Z,15.62
2022-08-07T02:36:29.323Z,15.65
2022-08-07T02:38:16.147Z,15.67
2022-08-07T02:40:46.460Z,15.68
2022-08-07T02:43:16.297Z,15.53
2022-08-07T02:45:58.164Z,15.47
2022-08-07T02:48:28.078Z,15.47
2022-08-07T02:50:57.247Z,15.45
2022-08-07T02:53:38.898Z,15.47
2022-08-07T02:56:20.937Z,15.43
2022-08-07T02:58:53.988Z,15.31
2022-08-07T03:01:36.408Z,15.38
2022-08-07T03:04:12.655Z,15.44
2022-08-07T03:06:44.717Z,15.30
2022-08-07T03:09:14.719Z,15.31
2022-08-07T03:12:05.290Z,15.41
2022-08-07T03:14:36.381Z,15.24
2022-08-07T03:17:05.096Z,15.22
2022-08-07T03:19:37.265Z,15.41
2022-08-07T03:22:06.861Z,15.54
2022-08-07T03:24:34.689Z,15.45
2022-08-07T03:27:09.056Z,15.53
2022-08-07T03:29:55.755Z,15.41
2022-08-07T03:32:28.341Z,15.44
2022-08-07T03:35:16.675Z,15.87
2022-08-07T03:37:54.028Z,16.68
2022-08-07T03:40:24.151Z,17.50
2022-08-07T03:42:59.833Z,17.39
2022-08-07T03:45:30.842Z,17.07
2022-08-07T03:47:59.389Z,17.51
2022-08-07T03:50:28.661Z,17.44
2022-08-07T03:52:59.853Z,18.74
2022-08-07T03:55:52.814Z,20.06
2022-08-07T03:59:05.667Z,20.95
2022-08-07T04:01:11.113Z,22.45
2022-08-07T04:03:53.222Z,22.74
2022-08-07T04:06:37.187Z,24.16
2022-08-07T04:09:06.536Z,24.67
2022-08-07T04:12:21.468Z,25.74
2022-08-07T04:14:38.672Z,25.97
2022-08-07T04:17:20.207Z,26.89
2022-08-07T04:19:52.050Z,28.07
2022-08-07T04:22:27.628Z,29.17
2022-08-07T04:25:01.235Z,30.12
2022-08-07T04:27:36.279Z,30.72
2022-08-07T04:30:21.510Z,31.71
2022-08-07T04:32:59.795Z,32.78
2022-08-07T04:35:27.443Z,33.31
2022-08-07T04:38:09.133Z,34.28
2022-08-07T04:40:44.112Z,34.78
2022-08-07T04:44:10.470Z,35.92
2022-08-07T04:46:34.803Z,36.21
2022-08-07T04:49:57.425Z,36.86
2022-08-07T04:52:53.981Z,37.03
2022-08-07T04:58:12.382Z,37.36
2022-08-07T05:02:16.601Z,38.33
2022-08-07T05:05:03.022Z,38.95
2022-08-07T05:07:55.435Z,39.56
2022-08-07T05:10:33.412Z,39.85
2022-08-07T05:14:53.823Z,40.38
2022-08-07T05:16:12.447Z,40.93
2022-08-07T05:18:51.277Z,41.17
2022-08-07T05:22:00.133Z,41.58
2022-08-07T05:24:17.183Z,41.71
2022-08-07T05:26:47.241Z,41.55
2022-08-07T05:29:18.251Z,41.79
2022-08-07T05:31:52.763Z,40.95
2022-08-07T05:34:21.638Z,42.19
2022-08-07T05:36:55.913Z,41.92
2022-08-07T05:40:16.608Z,42.49
2022-08-07T05:42:14.112Z,43.24
2022-08-07T05:44:52.902Z,41.82
2022-08-07T05:47:38.100Z,42.23
2022-08-07T05:50:17.914Z,43.47
2022-08-07T05:52:44.942Z,43.89
2022-08-07T05:55:13.585Z,43.34
2022-08-07T05:57:42.935Z,43.61
2022-08-07T06:00:16.623Z,44.20
2022-08-07T06:02:50.437Z,44.67
2022-08-07T06:05:25.831Z,44.15
2022-08-07T06:08:05.438Z,45.03
2022-08-07T06:10:46.136Z,45.03
2022-08-07T06:13:18.834Z,44.72
2022-08-07T06:15:54.374Z,45.27
2022-08-07T06:18:22.262Z,44.14
2022-08-07T06:22:15.727Z,45.06
2022-08-07T06:24:36.695Z,45.34
2022-08-07T06:26:31.019Z,45.24
2022-08-07T06:29:01.131Z,44.33
2022-08-07T06:31:47.237Z,44.27
2022-08-07T06:34:15.608Z,43.86
2022-08-07T06:36:46.711Z,44.10
2022-08-07T06:40:16.175Z,44.47
2022-08-07T06:42:05.925Z,46.11
2022-08-07T06:44:36.821Z,45.88
2022-08-07T06:47:12.075Z,44.98
2022-08-07T06:49:52.152Z,44.85
2022-08-07T06:52:37.149Z,44.57
2022-08-07T06:55:59.877Z,44.73
2022-08-07T06:58:24.498Z,43.66
2022-08-07T07:00:55.284Z,44.34
2022-08-07T07:03:39.640Z,43.37
2022-08-07T07:06:10.963Z,44.78
2022-08-07T07:08:39.732Z,43.90
2022-08-07T07:12:07.889Z,44.14
2022-08-07T07:14:04.013Z,43.73
2022-08-07T07:16:49.515Z,43.68
2022-08-07T07:19:57.178Z,43.85
2022-08-07T07:22:36.116Z,42.71
2022-08-07T07:25:14.166Z,41.96
2022-08-07T07:28:42.106Z,40.55
2022-08-07T07:31:12.507Z,41.80
2022-08-07T07:33:49.085Z,42.07
2022-08-07T07:36:32.439Z,41.89
2022-08-07T07:39:02.577Z,41.19
2022-08-07T07:41:50.868Z,39.84
2022-08-07T07:44:25.836Z,38.59
2022-08-07T07:47:04.267Z,38.14
2022-08-07T07:50:35.390Z,39.20
2022-08-07T07:52:33.825Z,39.31
2022-08-07T07:55:03.442Z,39.25
2022-08-07T07:57:52.434Z,39.40
2022-08-07T08:00:29.382Z,38.66
2022-08-07T08:03:16.630Z,38.02
2022-08-07T08:06:03.771Z,37.88
2022-08-07T08:08:36.873Z,37.71
2022-08-07T08:11:13.826Z,37.55
2022-08-07T08:13:53.331Z,37.38
2022-08-07T08:16:35.179Z,37.46
2022-08-07T08:19:17.551Z,37.27
2022-08-07T08:22:22.092Z,37.45
2022-08-07T08:25:25.160Z,35.72
2022-08-07T08:28:24.075Z,35.10
2022-08-07T08:31:16.074Z,35.90
2022-08-07T08:33:49.621Z,36.64
2022-08-07T08:36:29.610Z,36.49
2022-08-07T08:39:02.239Z,36.82
2022-08-07T08:41:57.932Z,37.59
2022-08-07T08:45:00.849Z,36.74
2022-08-07T08:48:15.489Z,36.06
2022-08-07T08:51:14.269Z,35.26
2022-08-07T08:53:52.613Z,34.13
2022-08-07T08:56:35.482Z,35.13
2022-08-07T08:59:42.241Z,34.00
2022-08-07T09:02:36.706Z,33.49
2022-08-07T09:05:36.711Z,32.81
2022-08-07T09:08:52.423Z,32.44
2022-08-07T09:11:54.551Z,31.67
2022-08-07T09:14:42.328Z,31.17
2022-08-07T09:17:59.708Z,31.11
2022-08-07T09:20:58.298Z,31.61
2022-08-07T09:24:32.366Z,31.89
2022-08-07T09:26:57.032Z,32.81
2022-08-07T09:30:03.266Z,32.91
2022-08-07T09:33:05.320Z,33.01
2022-08-07T09:36:02.815Z,31.32
2022-08-07T09:39:18.051Z,31.12
2022-08-07T09:42:16.948Z,31.20
2022-08-07T09:47:24.545Z,31.77
2022-08-07T09:48:15.169Z,31.99
2022-08-07T09:52:09.829Z,31.74
2022-08-07T09:54:16.339Z,31.93
2022-08-07T09:57:47.148Z,32.03
2022-08-07T10:00:24.345Z,32.41
2022-08-07T10:04:06.005Z,32.43
2022-08-07T10:07:34.483Z,31.87
2022-08-07T10:11:00.290Z,31.58
2022-08-07T10:14:00.355Z,30.98
2022-08-07T10:16:59.612Z,30.58
2022-08-07T10:19:37.616Z,29.92
2022-08-07T10:22:36.640Z,29.80
2022-08-07T10:26:24.597Z,29.63
2022-08-07T10:29:13.500Z,30.16
2022-08-07T10:32:31.592Z,30.00
2022-08-07T10:35:56.534Z,29.44
2022-08-07T10:38:42.314Z,29.59
2022-08-07T10:41:47.050Z,29.05
2022-08-07T10:44:50.056Z,28.90
2022-08-07T10:47:51.289Z,29.71
2022-08-07T10:50:35.544Z,30.21
2022-08-07T10:53:44.381Z,30.25
2022-08-07T10:56:43.056Z,30.49
2022-08-07T10:59:58.970Z,30.39
2022-08-07T11:02:53.682Z,30.37
2022-08-07T11:05:35.950Z,30.58
2022-08-07T11:08:52.981Z,30.23
2022-08-07T11:11:39.703Z,30.18
2022-08-07T11:14:44.338Z,29.79
2022-08-07T11:17:43.112Z,28.80
2022-08-07T11:20:35.531Z,28.23
2022-08-07T11:23:38.935Z,28.24
2022-08-07T11:26:17.535Z,28.53
2022-08-07T11:28:56.659Z,28.62
2022-08-07T11:31:45.073Z,28.31
2022-08-07T11:34:34.944Z,28.57
2022-08-07T11:37:58.255Z,28.68
2022-08-07T11:40:59.486Z,28.46
2022-08-07T11:44:12.444Z,28.54
2022-08-07T11:47:00.872Z,28.47
2022-08-07T11:50:30.453Z,27.99
2022-08-07T11:53:05.126Z,27.83
2022-08-07T11:56:25.739Z,27.55
2022-08-07T12:00:10.494Z,27.41
2022-08-07T12:03:41.921Z,27.07
2022-08-07T12:07:03.894Z,26.81
2022-08-07T12:10:08.449Z,26.65
2022-08-07T12:12:46.527Z,26.78
2022-08-07T12:15:58.018Z,26.54
2022-08-07T12:18:29.699Z,26.68
2022-08-07T12:22:36.652Z,26.33
2022-08-07T12:26:05.583Z,26.58
2022-08-07T12:28:37.358Z,26.64
2022-08-07T12:31:26.916Z,26.51
2022-08-07T12:34:16.152Z,26.01
2022-08-07T12:36:49.503Z,25.91
2022-08-07T12:39:42.525Z,25.76
2022-08-07T12:42:13.115Z,25.58
2022-08-07T12:44:45.072Z,25.97
2022-08-07T12:47:45.975Z,26.05
2022-08-07T12:50:38.486Z,26.33
2022-08-07T12:54:03.447Z,26.36
2022-08-07T12:56:51.331Z,25.67
2022-08-07T12:59:30.491Z,25.57
2022-08-07T13:03:07.076Z,24.80
2022-08-07T13:07:00.115Z,25.42
2022-08-07T13:10:28.812Z,24.97
2022-08-07T13:13:07.741Z,24.65
2022-08-07T13:15:47.785Z,24.61
2022-08-07T13:18:50.681Z,24.91
2022-08-07T13:21:50.178Z,25.24
2022-08-07T13:24:52.165Z,25.43
2022-08-07T13:28:05.812Z,25.26
2022-08-07T13:30:40.264Z,25.85
2022-08-07T13:34:33.353Z,26.22
2022-08-07T13:36:47.798Z,26.25
2022-08-07T13:40:32.728Z,26.42
2022-08-07T13:42:36.281Z,26.23
2022-08-07T13:45:20.782Z,26.54
2022-08-07T13:48:07.838Z,26.90
2022-08-07T13:50:44.437Z,25.87
2022-08-07T13:53:35.968Z,25.75
2022-08-07T13:56:35.548Z,25.27
2022-08-07T13:59:33.157Z,24.97
2022-08-07T14:02:12.920Z,25.03
2022-08-07T14:05:00.557Z,25.19
2022-08-07T14:07:38.129Z,25.16
2022-08-07T14:10:28.453Z,24.92
2022-08-07T14:13:03.733Z,24.89
2022-08-07T14:15:43.648Z,25.20
2022-08-07T14:18:45.113Z,24.69
2022-08-07T14:22:01.502Z,24.91
2022-08-07T14:24:33.516Z,24.77
2022-08-07T14:28:09.210Z,24.36
2022-08-07T14:30:06.548Z,24.75
2022-08-07T14:32:56.371Z,25.31
2022-08-07T14:35:45.558Z,25.15
2022-08-07T14:38:30.244Z,25.45
2022-08-07T14:41:03.892Z,25.41
2022-08-07T14:46:31.179Z,25.26
2022-08-07T14:52:03.842Z,24.71
2022-08-07T14:54:41.974Z,24.73
2022-08-07T14:57:19.356Z,24.88
2022-08-07T15:05:27.651Z,24.60
2022-08-07T15:07:59.047Z,24.97
2022-08-07T15:13:25.311Z,24.90
2022-08-07T15:16:02.463Z,24.93
2022-08-07T15:18:46.615Z,24.63
2022-08-07T15:21:58.595Z,24.64
2022-08-07T15:25:16.314Z,24.16
2022-08-07T15:27:25.959Z,24.20
2022-08-07T15:30:16.411Z,24.49
2022-08-07T15:36:01.476Z,24.20
2022-08-07T15:38:33.082Z,24.21
2022-08-07T15:42:43.967Z,24.29
2022-08-07T15:44:15.222Z,24.46
2022-08-07T15:46:51.746Z,24.44
2022-08-07T15:50:04.859Z,24.41
2022-08-07T15:52:30.634Z,24.39
2022-08-07T15:55:03.719Z,24.50
2022-08-07T15:57:47.658Z,24.58
2022-08-07T16:00:31.967Z,24.60
2022-08-07T16:03:21.485Z,24.49
2022-08-07T16:06:07.990Z,24.50
2022-08-07T16:08:45.630Z,24.46
2022-08-07T16:11:41.502Z,24.49
2022-08-07T16:15:06.918Z,24.68
2022-08-07T16:18:43.523Z,24.66
2022-08-07T16:22:07.858Z,24.55
2022-08-07T16:24:56.745Z,24.47
2022-08-07T16:27:57.360Z,24.42
2022-08-07T16:30:32.572Z,24.53
2022-08-07T16:34:01.404Z,24.56
2022-08-07T16:37:00.133Z,24.29
2022-08-07T16:40:23.335Z,24.22
2022-08-07T16:44:04.077Z,24.19
2022-08-07T16:47:17.222Z,24.14
2022-08-07T16:51:07.429Z,23.87
2022-08-07T16:54:19.913Z,24.10
2022-08-07T16:58:00.795Z,23.93
2022-08-07T17:00:30.116Z,23.76
2022-08-07T17:03:17.268Z,23.80
2022-08-07T17:06:31.454Z,23.83
2022-08-07T17:10:06.282Z,23.62
2022-08-07T17:12:48.629Z,23.52
2022-08-07T17:15:44.315Z,23.50
2022-08-07T17:18:46.274Z,23.44
2022-08-07T17:21:24.500Z,23.36
2022-08-07T17:24:23.663Z,23.48
2022-08-07T17:27:19.789Z,23.49
2022-08-07T17:30:19.806Z,23.26
2022-08-07T17:34:09.022Z,23.23
2022-08-07T17:36:31.115Z,23.18
2022-08-07T17:39:15.330Z,23.03
2022-08-07T17:42:02.490Z,22.96
2022-08-07T17:44:42.835Z,22.95
2022-08-07T17:47:41.754Z,22.71
2022-08-07T17:50:30.866Z,22.81
2022-08-07T17:53:07.571Z,22.90
2022-08-07T17:56:09.319Z,22.78
2022-08-07T17:58:57.252Z,22.77
2022-08-07T18:01:39.694Z,22.78
2022-08-07T18:04:31.062Z,22.80
2022-08-07T18:07:28.432Z,22.67
2022-08-07T18:10:37.794Z,22.62
2022-08-07T18:13:48.977Z,22.57
2022-08-07T18:17:05.609Z,22.49
2022-08-07T18:21:08.287Z,22.39
2022-08-07T18:22:48.618Z,22.25
2022-08-07T18:25:40.363Z,22.23
2022-08-07T18:28:35.546Z,22.08
2022-08-07T18:31:18.469Z,21.96
2022-08-07T18:34:37.746Z,21.81
2022-08-07T18:38:55.561Z,21.86
2022-08-07T18:41:09.185Z,21.81
2022-08-07T18:43:57.877Z,21.75
2022-08-07T18:46:47.263Z,21.69
2022-08-07T18:50:32.315Z,21.70
2022-08-07T18:53:20.024Z,21.39
2022-08-07T18:56:33.885Z,21.41
2022-08-07T18:59:59.099Z,21.36
2022-08-07T19:02:52.556Z,21.25
2022-08-07T19:06:03.922Z,21.17
2022-08-07T19:08:53.815Z,21.16
2022-08-07T19:12:11.104Z,21.03
2022-08-07T19:16:02.803Z,20.92
2022-08-07T19:18:34.124Z,20.89
2022-08-07T19:21:47.750Z,20.76
2022-08-07T19:24:48.839Z,20.70
2022-08-07T19:28:56.496Z,20.56
2022-08-07T19:31:01.228Z,20.58
2022-08-07T19:33:13.413Z,20.41
2022-08-07T19:35:51.360Z,20.39
2022-08-07T19:38:20.553Z,20.37
2022-08-07T19:40:51.514Z,20.23
2022-08-07T19:43:44.222Z,20.27
2022-08-07T19:46:19.309Z,20.29
2022-08-07T19:48:56.492Z,20.28
2022-08-07T19:51:52.453Z,20.28
2022-08-07T19:54:29.644Z,20.26
2022-08-07T19:57:52.270Z,20.18
2022-08-07T20:00:28.583Z,20.10
2022-08-07T20:03:06.790Z,20.07
2022-08-07T20:06:03.309Z,19.95
2022-08-07T20:08:34.458Z,20.00
2022-08-07T20:11:15.214Z,19.98
2022-08-07T20:14:03.175Z,19.92
2022-08-07T20:16:36.813Z,19.88
2022-08-07T20:19:10.969Z,19.91
2022-08-07T20:21:47.532Z,19.71
2022-08-07T20:24:28.550Z,19.74
2022-08-07T20:27:02.328Z,19.66
2022-08-07T20:29:49.464Z,19.71
2022-08-07T20:32:40.770Z,19.65
2022-08-07T20:35:23.282Z,19.55
2022-08-07T20:37:59.722Z,19.49
2022-08-07T20:40:34.707Z,19.59
2022-08-07T20:43:14.406Z,19.54
2022-08-07T20:46:27.238Z,19.45
2022-08-07T20:48:36.156Z,19.51
2022-08-07T20:51:09.453Z,19.41
2022-08-07T20:54:03.057Z,19.43
2022-08-07T20:56:30.789Z,19.41
2022-08-07T20:59:05.872Z,19.33
2022-08-07T21:01:45.726Z,19.24
2022-08-07T21:04:28.259Z,19.22
2022-08-07T21:07:04.503Z,19.18
2022-08-07T21:09:52.612Z,19.11
2022-08-07T21:12:33.600Z,19.18
2022-08-07T21:15:07.134Z,19.13
2022-08-07T21:18:02.346Z,18.96
2022-08-07T21:20:33.275Z,18.94
2022-08-07T21:23:08.808Z,18.84
2022-08-07T21:25:58.365Z,18.86
2022-08-07T21:28:48.175Z,18.88
2022-08-07T21:32:48.036Z,18.82
2022-08-07T21:35:11.210Z,18.78
2022-08-07T21:37:58.465Z,18.82
2022-08-07T21:40:36.106Z,18.77
2022-08-07T21:43:23.140Z,18.67
2022-08-07T21:46:05.398Z,18.64
2022-08-07T21:48:57.451Z,18.55
2022-08-07T21:51:27.573Z,18.59
2022-08-07T21:54:14.034Z,18.58
2022-08-07T21:57:31.564Z,18.57
2022-08-07T22:00:22.888Z,18.48
2022-08-07T22:03:17.165Z,18.53
2022-08-07T22:06:30.987Z,18.46
2022-08-07T22:09:10.941Z,18.44
2022-08-07T22:12:04.958Z,18.46
2022-08-07T22:15:04.152Z,18.40
2022-08-07T22:18:04.287Z,18.39
2022-08-07T22:20:54.955Z,18.30
2022-08-07T22:23:50.216Z,18.24
2022-08-07T22:26:44.865Z,18.21
2022-08-07T22:29:47.393Z,18.24
2022-08-07T22:32:46.845Z,18.17
2022-08-07T22:35:17.802Z,18.14
2022-08-07T22:38:11.332Z,18.14
2022-08-07T22:41:07.431Z,18.11
2022-08-07T22:43:56.332Z,18.08
2022-08-07T22:47:03.472Z,18.09
2022-08-07T22:50:29.069Z,18.02
2022-08-07T22:54:08.088Z,18.05
2022-08-07T22:57:05.785Z,17.97
2022-08-07T23:00:12.380Z,17.98
2022-08-07T23:02:51.437Z,17.92
2022-08-07T23:06:08.351Z,17.92
2022-08-07T23:10:03.962Z,17.81
2022-08-07T23:12:34.947Z,17.83
2022-08-07T23:16:04.424Z,17.72
2022-08-07T23:18:32.068Z,17.77
2022-08-07T23:21:09.578Z,17.57
2022-08-07T23:24:05.781Z,17.29
2022-08-07T23:27:11.681Z,17.57
2022-08-07T23:30:39.407Z,17.62
2022-08-07T23:34:23.416Z,17.62
2022-08-07T23:37:19.096Z,17.58
2022-08-07T23:39:47.233Z,17.39
2022-08-07T23:42:37.309Z,17.43
2022-08-07T23:46:01.493Z,17.52
2022-08-07T23:49:19.180Z,17.45
2022-08-07T23:53:01.180Z,17.50
2022-08-07T23:54:59.505Z,17.53
2022-08-07T23:57:56.250Z,17.45
